sensor_id;sensor_type;location;lat;lon;timestamp;P1;durP1;ratioP1;P2;durP2;ratioP2
2061;SDS011;11070;51.336;12.340;2024-02-28T00:01:24;29.50;;;18.53;;
2061;SDS011;11070;51.336;12.340;2024-02-28T00:03:50;32.50;;;17.37;;
2061;SDS011;11070;51.336;12.340;2024-02-28T00:06:18;33.33;;;19.47;;
2061;SDS011;11070;51.336;12.340;2024-02-28T00:08:44;35.13;;;19.00;;
2061;SDS011;11070;51.336;12.340;2024-02-28T00:11:11;30.02;;;18.40;;
2061;SDS011;11070;51.336;12.340;2024-02-28T00:13:36;31.43;;;17.37;;
2061;SDS011;11070;51.336;12.340;2024-02-28T00:16:02;26.73;;;16.57;;
2061;SDS011;11070;51.336;12.340;2024-02-28T00:18:28;26.80;;;16.95;;
2061;SDS011;11070;51.336;12.340;2024-02-28T00:20:56;30.80;;;17.80;;
2061;SDS011;11070;51.336;12.340;2024-02-28T00:23:21;27.83;;;16.93;;
2061;SDS011;11070;51.336;12.340;2024-02-28T00:25:47;26.47;;;16.63;;
2061;SDS011;11070;51.336;12.340;2024-02-28T00:28:13;28.87;;;16.63;;
2061;SDS011;11070;51.336;12.340;2024-02-28T00:30:39;27.57;;;16.00;;
2061;SDS011;11070;51.336;12.340;2024-02-28T00:33:06;26.55;;;16.48;;
2061;SDS011;11070;51.336;12.340;2024-02-28T00:35:32;24.80;;;15.53;;
2061;SDS011;11070;51.336;12.340;2024-02-28T00:37:59;30.15;;;17.08;;
2061;SDS011;11070;51.336;12.340;2024-02-28T00:40:24;27.93;;;17.20;;
2061;SDS011;11070;51.336;12.340;2024-02-28T00:42:50;28.03;;;18.40;;
2061;SDS011;11070;51.336;12.340;2024-02-28T00:45:16;28.20;;;15.95;;
2061;SDS011;11070;51.336;12.340;2024-02-28T00:47:42;28.83;;;16.20;;
2061;SDS011;11070;51.336;12.340;2024-02-28T00:50:08;25.85;;;16.20;;
2061;SDS011;11070;51.336;12.340;2024-02-28T00:52:34;32.67;;;17.20;;
2061;SDS011;11070;51.336;12.340;2024-02-28T00:55:00;32.13;;;17.67;;
2061;SDS011;11070;51.336;12.340;2024-02-28T00:57:26;27.33;;;17.47;;
2061;SDS011;11070;51.336;12.340;2024-02-28T00:59:51;28.90;;;17.70;;
2061;SDS011;11070;51.336;12.340;2024-02-28T01:02:19;31.02;;;18.00;;
2061;SDS011;11070;51.336;12.340;2024-02-28T01:04:45;28.52;;;17.45;;
2061;SDS011;11070;51.336;12.340;2024-02-28T01:07:11;32.00;;;19.10;;
2061;SDS011;11070;51.336;12.340;2024-02-28T01:09:37;33.77;;;18.70;;
2061;SDS011;11070;51.336;12.340;2024-02-28T01:12:02;30.37;;;17.90;;
2061;SDS011;11070;51.336;12.340;2024-02-28T01:14:29;29.47;;;18.00;;
2061;SDS011;11070;51.336;12.340;2024-02-28T01:16:54;31.33;;;18.55;;
2061;SDS011;11070;51.336;12.340;2024-02-28T01:19:20;32.80;;;19.10;;
2061;SDS011;11070;51.336;12.340;2024-02-28T01:21:46;27.67;;;17.43;;
2061;SDS011;11070;51.336;12.340;2024-02-28T01:24:11;30.30;;;19.40;;
2061;SDS011;11070;51.336;12.340;2024-02-28T01:26:37;26.80;;;17.53;;
2061;SDS011;11070;51.336;12.340;2024-02-28T01:29:03;32.97;;;18.67;;
2061;SDS011;11070;51.336;12.340;2024-02-28T01:31:28;28.40;;;18.10;;
2061;SDS011;11070;51.336;12.340;2024-02-28T01:33:54;29.30;;;16.33;;
2061;SDS011;11070;51.336;12.340;2024-02-28T01:36:20;27.33;;;16.92;;
2061;SDS011;11070;51.336;12.340;2024-02-28T01:38:46;28.57;;;17.30;;
2061;SDS011;11070;51.336;12.340;2024-02-28T01:41:12;31.37;;;18.03;;
2061;SDS011;11070;51.336;12.340;2024-02-28T01:43:37;29.53;;;17.60;;
2061;SDS011;11070;51.336;12.340;2024-02-28T01:46:03;29.20;;;18.03;;
2061;SDS011;11070;51.336;12.340;2024-02-28T01:48:45;31.13;;;18.02;;
2061;SDS011;11070;51.336;12.340;2024-02-28T01:51:11;34.38;;;18.58;;
2061;SDS011;11070;51.336;12.340;2024-02-28T01:53:38;30.05;;;18.70;;
2061;SDS011;11070;51.336;12.340;2024-02-28T01:56:03;32.10;;;18.23;;
2061;SDS011;11070;51.336;12.340;2024-02-28T01:58:29;32.53;;;19.13;;
2061;SDS011;11070;51.336;12.340;2024-02-28T02:00:55;35.70;;;19.87;;
2061;SDS011;11070;51.336;12.340;2024-02-28T02:03:23;31.48;;;18.98;;
2061;SDS011;11070;51.336;12.340;2024-02-28T02:05:48;30.27;;;19.00;;
2061;SDS011;11070;51.336;12.340;2024-02-28T02:08:14;32.83;;;18.77;;
2061;SDS011;11070;51.336;12.340;2024-02-28T02:10:40;32.20;;;19.90;;
2061;SDS011;11070;51.336;12.340;2024-02-28T02:13:06;35.55;;;20.40;;
2061;SDS011;11070;51.336;12.340;2024-02-28T02:15:32;33.28;;;19.92;;
2061;SDS011;11070;51.336;12.340;2024-02-28T02:17:58;33.63;;;19.33;;
2061;SDS011;11070;51.336;12.340;2024-02-28T02:20:25;34.53;;;20.30;;
2061;SDS011;11070;51.336;12.340;2024-02-28T02:22:53;37.88;;;20.95;;
2061;SDS011;11070;51.336;12.340;2024-02-28T02:25:19;32.40;;;19.50;;
2061;SDS011;11070;51.336;12.340;2024-02-28T02:27:45;33.87;;;19.80;;
2061;SDS011;11070;51.336;12.340;2024-02-28T02:30:11;32.77;;;18.97;;
2061;SDS011;11070;51.336;12.340;2024-02-28T02:32:37;34.45;;;19.52;;
2061;SDS011;11070;51.336;12.340;2024-02-28T02:35:02;33.50;;;19.63;;
2061;SDS011;11070;51.336;12.340;2024-02-28T02:37:28;34.43;;;20.70;;
2061;SDS011;11070;51.336;12.340;2024-02-28T02:39:54;35.97;;;20.40;;
2061;SDS011;11070;51.336;12.340;2024-02-28T02:42:20;38.28;;;20.55;;
2061;SDS011;11070;51.336;12.340;2024-02-28T02:44:46;38.57;;;20.53;;
2061;SDS011;11070;51.336;12.340;2024-02-28T02:47:11;35.70;;;19.60;;
2061;SDS011;11070;51.336;12.340;2024-02-28T02:49:37;34.93;;;20.20;;
2061;SDS011;11070;51.336;12.340;2024-02-28T02:52:02;36.33;;;20.67;;
2061;SDS011;11070;51.336;12.340;2024-02-28T02:54:28;39.73;;;20.50;;
2061;SDS011;11070;51.336;12.340;2024-02-28T02:56:54;36.10;;;20.20;;
2061;SDS011;11070;51.336;12.340;2024-02-28T02:59:19;31.70;;;19.43;;
2061;SDS011;11070;51.336;12.340;2024-02-28T03:01:48;34.63;;;20.52;;
2061;SDS011;11070;51.336;12.340;2024-02-28T03:04:14;36.42;;;20.58;;
2061;SDS011;11070;51.336;12.340;2024-02-28T03:06:39;35.43;;;21.37;;
2061;SDS011;11070;51.336;12.340;2024-02-28T03:09:05;35.30;;;20.97;;
2061;SDS011;11070;51.336;12.340;2024-02-28T03:11:32;32.63;;;19.50;;
2061;SDS011;11070;51.336;12.340;2024-02-28T03:14:00;34.05;;;19.90;;
2061;SDS011;11070;51.336;12.340;2024-02-28T03:16:26;32.03;;;19.80;;
2061;SDS011;11070;51.336;12.340;2024-02-28T03:18:51;29.87;;;18.40;;
2061;SDS011;11070;51.336;12.340;2024-02-28T03:21:17;32.40;;;20.17;;
2061;SDS011;11070;51.336;12.340;2024-02-28T03:23:43;30.63;;;18.40;;
2061;SDS011;11070;51.336;12.340;2024-02-28T03:26:08;31.97;;;18.23;;
2061;SDS011;11070;51.336;12.340;2024-02-28T03:28:34;27.40;;;17.93;;
2061;SDS011;11070;51.336;12.340;2024-02-28T03:30:59;31.23;;;19.10;;
2061;SDS011;11070;51.336;12.340;2024-02-28T03:33:25;30.33;;;18.33;;
2061;SDS011;11070;51.336;12.340;2024-02-28T03:35:51;33.50;;;19.53;;
2061;SDS011;11070;51.336;12.340;2024-02-28T03:38:18;29.13;;;17.02;;
2061;SDS011;11070;51.336;12.340;2024-02-28T03:40:43;28.33;;;17.50;;
2061;SDS011;11070;51.336;12.340;2024-02-28T03:43:09;27.70;;;16.30;;
2061;SDS011;11070;51.336;12.340;2024-02-28T03:45:37;28.43;;;17.37;;
2061;SDS011;11070;51.336;12.340;2024-02-28T03:48:04;32.45;;;18.80;;
2061;SDS011;11070;51.336;12.340;2024-02-28T03:50:30;32.80;;;18.05;;
2061;SDS011;11070;51.336;12.340;2024-02-28T03:52:55;28.10;;;17.60;;
2061;SDS011;11070;51.336;12.340;2024-02-28T03:55:21;29.87;;;19.10;;
2061;SDS011;11070;51.336;12.340;2024-02-28T03:57:47;33.00;;;19.20;;
2061;SDS011;11070;51.336;12.340;2024-02-28T04:00:14;29.08;;;18.70;;
2061;SDS011;11070;51.336;12.340;2024-02-28T04:02:40;33.80;;;19.30;;
2061;SDS011;11070;51.336;12.340;2024-02-28T04:05:06;31.10;;;19.60;;
2061;SDS011;11070;51.336;12.340;2024-02-28T04:07:32;32.23;;;20.23;;
2061;SDS011;11070;51.336;12.340;2024-02-28T04:09:58;33.25;;;20.25;;
2061;SDS011;11070;51.336;12.340;2024-02-28T04:12:24;36.53;;;20.40;;
2061;SDS011;11070;51.336;12.340;2024-02-28T04:14:49;34.43;;;20.80;;
2061;SDS011;11070;51.336;12.340;2024-02-28T04:17:15;36.17;;;21.27;;
2061;SDS011;11070;51.336;12.340;2024-02-28T04:19:41;36.97;;;21.00;;
2061;SDS011;11070;51.336;12.340;2024-02-28T04:22:06;32.73;;;20.03;;
2061;SDS011;11070;51.336;12.340;2024-02-28T04:24:32;34.57;;;21.70;;
2061;SDS011;11070;51.336;12.340;2024-02-28T04:26:57;35.67;;;21.87;;
2061;SDS011;11070;51.336;12.340;2024-02-28T04:29:24;36.15;;;22.75;;
2061;SDS011;11070;51.336;12.340;2024-02-28T04:31:50;37.75;;;22.90;;
2061;SDS011;11070;51.336;12.340;2024-02-28T04:34:16;36.20;;;22.43;;
2061;SDS011;11070;51.336;12.340;2024-02-28T04:36:42;35.83;;;22.23;;
2061;SDS011;11070;51.336;12.340;2024-02-28T04:39:07;37.10;;;22.07;;
2061;SDS011;11070;51.336;12.340;2024-02-28T04:41:33;38.75;;;22.05;;
2061;SDS011;11070;51.336;12.340;2024-02-28T04:43:59;40.07;;;23.07;;
2061;SDS011;11070;51.336;12.340;2024-02-28T04:46:25;39.43;;;23.57;;
2061;SDS011;11070;51.336;12.340;2024-02-28T04:48:50;39.20;;;24.80;;
2061;SDS011;11070;51.336;12.340;2024-02-28T04:51:16;36.03;;;23.10;;
2061;SDS011;11070;51.336;12.340;2024-02-28T04:53:42;35.10;;;21.53;;
2061;SDS011;11070;51.336;12.340;2024-02-28T04:56:08;40.05;;;23.17;;
2061;SDS011;11070;51.336;12.340;2024-02-28T04:58:35;37.07;;;22.03;;
2061;SDS011;11070;51.336;12.340;2024-02-28T05:01:03;38.20;;;23.15;;
2061;SDS011;11070;51.336;12.340;2024-02-28T05:03:29;39.37;;;22.20;;
2061;SDS011;11070;51.336;12.340;2024-02-28T05:05:55;36.87;;;23.20;;
2061;SDS011;11070;51.336;12.340;2024-02-28T05:08:20;35.63;;;21.27;;
2061;SDS011;11070;51.336;12.340;2024-02-28T05:10:46;35.33;;;21.27;;
2061;SDS011;11070;51.336;12.340;2024-02-28T05:13:12;31.77;;;20.43;;
2061;SDS011;11070;51.336;12.340;2024-02-28T05:15:38;34.33;;;20.67;;
2061;SDS011;11070;51.336;12.340;2024-02-28T05:18:03;29.93;;;18.60;;
2061;SDS011;11070;51.336;12.340;2024-02-28T05:20:29;31.45;;;19.88;;
2061;SDS011;11070;51.336;12.340;2024-02-28T05:22:55;30.87;;;19.10;;
2061;SDS011;11070;51.336;12.340;2024-02-28T05:25:22;33.00;;;19.70;;
2061;SDS011;11070;51.336;12.340;2024-02-28T05:27:48;35.40;;;20.13;;
2061;SDS011;11070;51.336;12.340;2024-02-28T05:30:14;30.83;;;20.00;;
2061;SDS011;11070;51.336;12.340;2024-02-28T05:32:39;29.13;;;18.83;;
2061;SDS011;11070;51.336;12.340;2024-02-28T05:35:05;29.80;;;18.83;;
2061;SDS011;11070;51.336;12.340;2024-02-28T05:37:31;32.10;;;21.53;;
2061;SDS011;11070;51.336;12.340;2024-02-28T05:39:56;34.33;;;22.50;;
2061;SDS011;11070;51.336;12.340;2024-02-28T05:42:22;28.53;;;18.87;;
2061;SDS011;11070;51.336;12.340;2024-02-28T05:44:49;28.80;;;18.33;;
2061;SDS011;11070;51.336;12.340;2024-02-28T05:47:15;32.45;;;19.50;;
2061;SDS011;11070;51.336;12.340;2024-02-28T05:49:41;29.67;;;18.73;;
2061;SDS011;11070;51.336;12.340;2024-02-28T05:52:07;31.73;;;19.23;;
2061;SDS011;11070;51.336;12.340;2024-02-28T05:54:32;31.03;;;18.00;;
2061;SDS011;11070;51.336;12.340;2024-02-28T05:57:01;30.75;;;19.25;;
2061;SDS011;11070;51.336;12.340;2024-02-28T05:59:26;33.70;;;18.77;;
2061;SDS011;11070;51.336;12.340;2024-02-28T06:01:52;30.70;;;17.87;;
2061;SDS011;11070;51.336;12.340;2024-02-28T06:04:18;27.27;;;17.30;;
2061;SDS011;11070;51.336;12.340;2024-02-28T06:06:44;30.17;;;18.20;;
2061;SDS011;11070;51.336;12.340;2024-02-28T06:09:10;28.97;;;17.17;;
2061;SDS011;11070;51.336;12.340;2024-02-28T06:11:35;25.70;;;17.45;;
2061;SDS011;11070;51.336;12.340;2024-02-28T06:14:01;32.83;;;19.63;;
2061;SDS011;11070;51.336;12.340;2024-02-28T06:16:30;31.63;;;19.35;;
2061;SDS011;11070;51.336;12.340;2024-02-28T06:18:56;32.90;;;20.47;;
2061;SDS011;11070;51.336;12.340;2024-02-28T06:21:22;31.77;;;20.27;;
2061;SDS011;11070;51.336;12.340;2024-02-28T06:23:48;33.35;;;20.60;;
2061;SDS011;11070;51.336;12.340;2024-02-28T06:26:13;34.00;;;21.13;;
2061;SDS011;11070;51.336;12.340;2024-02-28T06:28:45;40.72;;;23.45;;
2061;SDS011;11070;51.336;12.340;2024-02-28T06:31:17;34.72;;;20.90;;
2061;SDS011;11070;51.336;12.340;2024-02-28T06:33:44;38.15;;;21.90;;
2061;SDS011;11070;51.336;12.340;2024-02-28T06:36:10;38.42;;;22.58;;
2061;SDS011;11070;51.336;12.340;2024-02-28T06:38:36;36.97;;;21.20;;
2061;SDS011;11070;51.336;12.340;2024-02-28T06:41:03;37.93;;;21.70;;
2061;SDS011;11070;51.336;12.340;2024-02-28T06:43:29;38.05;;;21.92;;
2061;SDS011;11070;51.336;12.340;2024-02-28T06:45:57;40.90;;;23.85;;
2061;SDS011;11070;51.336;12.340;2024-02-28T06:48:23;41.47;;;25.40;;
2061;SDS011;11070;51.336;12.340;2024-02-28T06:50:49;44.20;;;25.10;;
2061;SDS011;11070;51.336;12.340;2024-02-28T06:53:14;44.83;;;25.63;;
2061;SDS011;11070;51.336;12.340;2024-02-28T06:55:40;47.10;;;26.13;;
2061;SDS011;11070;51.336;12.340;2024-02-28T06:58:06;42.33;;;26.40;;
2061;SDS011;11070;51.336;12.340;2024-02-28T07:00:31;48.47;;;27.37;;
2061;SDS011;11070;51.336;12.340;2024-02-28T07:02:57;48.27;;;27.43;;
2061;SDS011;11070;51.336;12.340;2024-02-28T07:05:23;48.10;;;27.10;;
2061;SDS011;11070;51.336;12.340;2024-02-28T07:07:49;43.97;;;26.80;;
2061;SDS011;11070;51.336;12.340;2024-02-28T07:10:15;48.00;;;26.70;;
2061;SDS011;11070;51.336;12.340;2024-02-28T07:12:40;41.37;;;25.73;;
2061;SDS011;11070;51.336;12.340;2024-02-28T07:15:06;45.83;;;26.30;;
2061;SDS011;11070;51.336;12.340;2024-02-28T07:17:32;40.10;;;23.07;;
2061;SDS011;11070;51.336;12.340;2024-02-28T07:19:58;43.23;;;25.60;;
2061;SDS011;11070;51.336;12.340;2024-02-28T07:22:23;49.70;;;28.53;;
2061;SDS011;11070;51.336;12.340;2024-02-28T07:24:51;50.30;;;28.33;;
2061;SDS011;11070;51.336;12.340;2024-02-28T07:27:17;51.53;;;28.85;;
2061;SDS011;11070;51.336;12.340;2024-02-28T07:29:43;56.07;;;30.43;;
2061;SDS011;11070;51.336;12.340;2024-02-28T07:32:09;50.85;;;28.30;;
2061;SDS011;11070;51.336;12.340;2024-02-28T07:34:34;48.80;;;26.93;;
2061;SDS011;11070;51.336;12.340;2024-02-28T07:37:00;57.23;;;29.13;;
2061;SDS011;11070;51.336;12.340;2024-02-28T07:39:26;55.97;;;29.70;;
2061;SDS011;11070;51.336;12.340;2024-02-28T07:41:52;54.25;;;29.42;;
2061;SDS011;11070;51.336;12.340;2024-02-28T07:44:20;52.03;;;28.87;;
2061;SDS011;11070;51.336;12.340;2024-02-28T07:46:46;56.67;;;29.55;;
2061;SDS011;11070;51.336;12.340;2024-02-28T07:49:12;52.07;;;29.30;;
2061;SDS011;11070;51.336;12.340;2024-02-28T07:51:38;53.00;;;28.38;;
2061;SDS011;11070;51.336;12.340;2024-02-28T07:54:05;50.15;;;29.58;;
2061;SDS011;11070;51.336;12.340;2024-02-28T07:56:31;51.60;;;28.60;;
2061;SDS011;11070;51.336;12.340;2024-02-28T07:58:57;49.60;;;27.92;;
2061;SDS011;11070;51.336;12.340;2024-02-28T08:01:23;51.53;;;30.40;;
2061;SDS011;11070;51.336;12.340;2024-02-28T08:03:49;43.83;;;26.03;;
2061;SDS011;11070;51.336;12.340;2024-02-28T08:06:15;50.13;;;27.73;;
2061;SDS011;11070;51.336;12.340;2024-02-28T08:08:43;45.63;;;26.60;;
2061;SDS011;11070;51.336;12.340;2024-02-28T08:11:10;41.47;;;24.95;;
2061;SDS011;11070;51.336;12.340;2024-02-28T08:13:36;43.13;;;25.23;;
2061;SDS011;11070;51.336;12.340;2024-02-28T08:16:02;42.83;;;24.93;;
2061;SDS011;11070;51.336;12.340;2024-02-28T08:18:28;38.90;;;24.45;;
2061;SDS011;11070;51.336;12.340;2024-02-28T08:20:53;39.47;;;24.93;;
2061;SDS011;11070;51.336;12.340;2024-02-28T08:23:22;40.45;;;24.85;;
2061;SDS011;11070;51.336;12.340;2024-02-28T08:25:48;32.45;;;21.55;;
2061;SDS011;11070;51.336;12.340;2024-02-28T08:28:14;32.60;;;22.73;;
2061;SDS011;11070;51.336;12.340;2024-02-28T08:30:40;31.60;;;22.20;;
2061;SDS011;11070;51.336;12.340;2024-02-28T08:33:06;32.27;;;22.70;;
2061;SDS011;11070;51.336;12.340;2024-02-28T08:35:34;33.50;;;24.45;;
2061;SDS011;11070;51.336;12.340;2024-02-28T08:37:59;33.53;;;24.50;;
2061;SDS011;11070;51.336;12.340;2024-02-28T08:40:25;33.13;;;24.43;;
2061;SDS011;11070;51.336;12.340;2024-02-28T08:42:51;30.50;;;23.53;;
2061;SDS011;11070;51.336;12.340;2024-02-28T08:45:19;35.00;;;25.48;;
2061;SDS011;11070;51.336;12.340;2024-02-28T08:47:45;29.90;;;23.52;;
2061;SDS011;11070;51.336;12.340;2024-02-28T08:50:11;32.10;;;23.57;;
2061;SDS011;11070;51.336;12.340;2024-02-28T08:52:36;31.57;;;22.93;;
2061;SDS011;11070;51.336;12.340;2024-02-28T08:55:02;32.03;;;22.30;;
2061;SDS011;11070;51.336;12.340;2024-02-28T08:57:28;32.17;;;22.27;;
2061;SDS011;11070;51.336;12.340;2024-02-28T08:59:55;33.53;;;24.15;;
2061;SDS011;11070;51.336;12.340;2024-02-28T09:02:21;29.83;;;21.63;;
2061;SDS011;11070;51.336;12.340;2024-02-28T09:04:46;32.33;;;22.50;;
2061;SDS011;11070;51.336;12.340;2024-02-28T09:07:17;36.88;;;23.38;;
2061;SDS011;11070;51.336;12.340;2024-02-28T09:09:46;34.50;;;24.58;;
2061;SDS011;11070;51.336;12.340;2024-02-28T09:12:12;36.50;;;24.08;;
2061;SDS011;11070;51.336;12.340;2024-02-28T09:14:38;36.40;;;23.53;;
2061;SDS011;11070;51.336;12.340;2024-02-28T09:17:04;34.03;;;23.60;;
2061;SDS011;11070;51.336;12.340;2024-02-28T09:19:30;32.87;;;22.17;;
2061;SDS011;11070;51.336;12.340;2024-02-28T09:21:56;33.03;;;21.73;;
2061;SDS011;11070;51.336;12.340;2024-02-28T09:24:23;33.53;;;22.38;;
2061;SDS011;11070;51.336;12.340;2024-02-28T09:26:49;34.15;;;23.38;;
2061;SDS011;11070;51.336;12.340;2024-02-28T09:29:14;36.77;;;25.30;;
2061;SDS011;11070;51.336;12.340;2024-02-28T09:31:40;40.50;;;27.50;;
2061;SDS011;11070;51.336;12.340;2024-02-28T09:34:06;41.77;;;27.50;;
2061;SDS011;11070;51.336;12.340;2024-02-28T09:36:41;39.92;;;28.08;;
2061;SDS011;11070;51.336;12.340;2024-02-28T09:39:13;41.30;;;27.40;;
2061;SDS011;11070;51.336;12.340;2024-02-28T09:41:42;43.53;;;26.05;;
2061;SDS011;11070;51.336;12.340;2024-02-28T09:44:08;41.10;;;26.40;;
2061;SDS011;11070;51.336;12.340;2024-02-28T09:46:35;37.28;;;24.85;;
2061;SDS011;11070;51.336;12.340;2024-02-28T09:49:04;33.17;;;23.77;;
2061;SDS011;11070;51.336;12.340;2024-02-28T09:51:34;40.22;;;27.38;;
2061;SDS011;11070;51.336;12.340;2024-02-28T09:54:01;31.13;;;24.65;;
2061;SDS011;11070;51.336;12.340;2024-02-28T09:56:28;34.25;;;25.10;;
2061;SDS011;11070;51.336;12.340;2024-02-28T09:58:54;31.20;;;24.00;;
2061;SDS011;11070;51.336;12.340;2024-02-28T10:01:21;29.00;;;23.85;;
2061;SDS011;11070;51.336;12.340;2024-02-28T10:03:48;29.35;;;24.73;;
2061;SDS011;11070;51.336;12.340;2024-02-28T10:06:17;30.38;;;25.55;;
2061;SDS011;11070;51.336;12.340;2024-02-28T10:08:43;26.52;;;23.02;;
2061;SDS011;11070;51.336;12.340;2024-02-28T10:11:16;28.83;;;23.52;;
2061;SDS011;11070;51.336;12.340;2024-02-28T10:13:49;27.88;;;23.55;;
2061;SDS011;11070;51.336;12.340;2024-02-28T10:16:15;27.23;;;23.60;;
2061;SDS011;11070;51.336;12.340;2024-02-28T10:18:44;26.92;;;24.00;;
2061;SDS011;11070;51.336;12.340;2024-02-28T10:21:11;28.00;;;24.52;;
2061;SDS011;11070;51.336;12.340;2024-02-28T10:23:40;27.63;;;23.70;;
2061;SDS011;11070;51.336;12.340;2024-02-28T10:26:08;26.35;;;21.98;;
2061;SDS011;11070;51.336;12.340;2024-02-28T10:28:38;26.75;;;23.25;;
2061;SDS011;11070;51.336;12.340;2024-02-28T10:31:05;28.05;;;23.52;;
2061;SDS011;11070;51.336;12.340;2024-02-28T10:33:32;31.30;;;23.20;;
2061;SDS011;11070;51.336;12.340;2024-02-28T10:35:58;26.67;;;22.45;;
2061;SDS011;11070;51.336;12.340;2024-02-28T10:38:25;32.17;;;23.50;;
2061;SDS011;11070;51.336;12.340;2024-02-28T10:40:52;26.35;;;21.25;;
2061;SDS011;11070;51.336;12.340;2024-02-28T10:43:18;27.38;;;22.27;;
2061;SDS011;11070;51.336;12.340;2024-02-28T10:45:45;27.37;;;21.50;;
2061;SDS011;11070;51.336;12.340;2024-02-28T10:48:14;24.30;;;20.37;;
2061;SDS011;11070;51.336;12.340;2024-02-28T10:50:45;22.07;;;19.00;;
2061;SDS011;11070;51.336;12.340;2024-02-28T10:53:13;22.20;;;18.50;;
2061;SDS011;11070;51.336;12.340;2024-02-28T10:55:42;21.37;;;18.70;;
2061;SDS011;11070;51.336;12.340;2024-02-28T10:58:11;20.90;;;18.70;;
2061;SDS011;11070;51.336;12.340;2024-02-28T11:00:39;22.10;;;18.20;;
2061;SDS011;11070;51.336;12.340;2024-02-28T11:03:06;18.80;;;16.57;;
2061;SDS011;11070;51.336;12.340;2024-02-28T11:05:37;19.43;;;16.70;;
2061;SDS011;11070;51.336;12.340;2024-02-28T11:08:10;19.40;;;17.47;;
2061;SDS011;11070;51.336;12.340;2024-02-28T11:10:58;19.03;;;16.90;;
2061;SDS011;11070;51.336;12.340;2024-02-28T11:13:27;23.10;;;15.83;;
2061;SDS011;11070;51.336;12.340;2024-02-28T11:15:53;18.70;;;16.10;;
2061;SDS011;11070;51.336;12.340;2024-02-28T11:18:22;20.50;;;18.30;;
2061;SDS011;11070;51.336;12.340;2024-02-28T11:20:48;19.03;;;17.00;;
2061;SDS011;11070;51.336;12.340;2024-02-28T11:23:17;20.37;;;18.03;;
2061;SDS011;11070;51.336;12.340;2024-02-28T11:25:42;19.10;;;16.00;;
2061;SDS011;11070;51.336;12.340;2024-02-28T11:28:08;17.63;;;15.73;;
2061;SDS011;11070;51.336;12.340;2024-02-28T11:30:34;18.20;;;16.30;;
2061;SDS011;11070;51.336;12.340;2024-02-28T11:33:01;18.83;;;16.93;;
2061;SDS011;11070;51.336;12.340;2024-02-28T11:35:27;21.00;;;18.80;;
2061;SDS011;11070;51.336;12.340;2024-02-28T11:37:56;18.57;;;16.50;;
2061;SDS011;11070;51.336;12.340;2024-02-28T11:40:22;18.20;;;16.10;;
2061;SDS011;11070;51.336;12.340;2024-02-28T11:42:52;19.00;;;15.73;;
2061;SDS011;11070;51.336;12.340;2024-02-28T11:45:19;18.27;;;15.63;;
2061;SDS011;11070;51.336;12.340;2024-02-28T11:47:44;16.10;;;14.40;;
2061;SDS011;11070;51.336;12.340;2024-02-28T11:50:11;17.87;;;14.37;;
2061;SDS011;11070;51.336;12.340;2024-02-28T11:52:37;17.57;;;15.50;;
2061;SDS011;11070;51.336;12.340;2024-02-28T11:55:03;17.37;;;15.57;;
2061;SDS011;11070;51.336;12.340;2024-02-28T11:57:29;16.57;;;14.50;;
2061;SDS011;11070;51.336;12.340;2024-02-28T11:59:58;19.63;;;17.13;;
2061;SDS011;11070;51.336;12.340;2024-02-28T12:02:42;18.63;;;16.63;;
2061;SDS011;11070;51.336;12.340;2024-02-28T12:05:07;18.83;;;16.83;;
2061;SDS011;11070;51.336;12.340;2024-02-28T12:07:34;21.17;;;17.33;;
2061;SDS011;11070;51.336;12.340;2024-02-28T12:10:00;17.13;;;15.33;;
2061;SDS011;11070;51.336;12.340;2024-02-28T12:12:29;17.60;;;15.10;;
2061;SDS011;11070;51.336;12.340;2024-02-28T12:14:58;17.57;;;15.77;;
2061;SDS011;11070;51.336;12.340;2024-02-28T12:17:30;20.48;;;16.20;;
2061;SDS011;11070;51.336;12.340;2024-02-28T12:19:56;16.87;;;15.07;;
2061;SDS011;11070;51.336;12.340;2024-02-28T12:22:24;16.75;;;14.95;;
2061;SDS011;11070;51.336;12.340;2024-02-28T12:24:50;18.00;;;14.90;;
2061;SDS011;11070;51.336;12.340;2024-02-28T12:27:15;17.33;;;15.23;;
2061;SDS011;11070;51.336;12.340;2024-02-28T12:29:41;21.37;;;15.27;;
2061;SDS011;11070;51.336;12.340;2024-02-28T12:32:07;16.20;;;14.50;;
2061;SDS011;11070;51.336;12.340;2024-02-28T12:34:33;14.93;;;13.40;;
2061;SDS011;11070;51.336;12.340;2024-02-28T12:36:59;17.10;;;15.30;;
2061;SDS011;11070;51.336;12.340;2024-02-28T12:39:25;17.13;;;14.30;;
2061;SDS011;11070;51.336;12.340;2024-02-28T12:41:52;17.55;;;15.60;;
2061;SDS011;11070;51.336;12.340;2024-02-28T12:44:17;16.67;;;14.20;;
2061;SDS011;11070;51.336;12.340;2024-02-28T12:46:43;17.00;;;14.13;;
2061;SDS011;11070;51.336;12.340;2024-02-28T12:49:09;16.23;;;13.90;;
2061;SDS011;11070;51.336;12.340;2024-02-28T12:51:41;14.83;;;13.17;;
2061;SDS011;11070;51.336;12.340;2024-02-28T12:54:09;14.90;;;13.33;;
2061;SDS011;11070;51.336;12.340;2024-02-28T12:56:35;15.37;;;13.50;;
2061;SDS011;11070;51.336;12.340;2024-02-28T12:59:01;17.13;;;14.93;;
2061;SDS011;11070;51.336;12.340;2024-02-28T13:01:27;15.80;;;14.20;;
2061;SDS011;11070;51.336;12.340;2024-02-28T13:03:53;16.27;;;14.17;;
2061;SDS011;11070;51.336;12.340;2024-02-28T13:06:19;16.60;;;14.00;;
2061;SDS011;11070;51.336;12.340;2024-02-28T13:08:45;15.00;;;13.07;;
2061;SDS011;11070;51.336;12.340;2024-02-28T13:11:16;17.80;;;14.20;;
2061;SDS011;11070;51.336;12.340;2024-02-28T13:13:46;14.73;;;13.20;;
2061;SDS011;11070;51.336;12.340;2024-02-28T13:16:12;15.00;;;13.30;;
2061;SDS011;11070;51.336;12.340;2024-02-28T13:18:38;14.87;;;13.27;;
2061;SDS011;11070;51.336;12.340;2024-02-28T13:21:03;14.80;;;13.30;;
2061;SDS011;11070;51.336;12.340;2024-02-28T13:23:30;14.60;;;13.10;;
2061;SDS011;11070;51.336;12.340;2024-02-28T13:25:59;14.37;;;12.40;;
2061;SDS011;11070;51.336;12.340;2024-02-28T13:28:26;13.47;;;10.97;;
2061;SDS011;11070;51.336;12.340;2024-02-28T13:30:56;13.32;;;11.95;;
2061;SDS011;11070;51.336;12.340;2024-02-28T13:33:22;15.17;;;12.30;;
2061;SDS011;11070;51.336;12.340;2024-02-28T13:35:48;12.10;;;10.40;;
2061;SDS011;11070;51.336;12.340;2024-02-28T13:38:14;12.60;;;11.30;;
2061;SDS011;11070;51.336;12.340;2024-02-28T13:40:39;11.10;;;9.90;;
2061;SDS011;11070;51.336;12.340;2024-02-28T13:43:06;15.20;;;11.53;;
2061;SDS011;11070;51.336;12.340;2024-02-28T13:45:32;12.57;;;11.27;;
2061;SDS011;11070;51.336;12.340;2024-02-28T13:47:58;11.70;;;10.50;;
2061;SDS011;11070;51.336;12.340;2024-02-28T13:50:24;12.13;;;10.60;;
2061;SDS011;11070;51.336;12.340;2024-02-28T13:52:56;11.30;;;10.10;;
2061;SDS011;11070;51.336;12.340;2024-02-28T13:55:22;15.27;;;11.20;;
2061;SDS011;11070;51.336;12.340;2024-02-28T13:57:48;11.47;;;10.37;;
2061;SDS011;11070;51.336;12.340;2024-02-28T14:00:14;11.60;;;10.40;;
2061;SDS011;11070;51.336;12.340;2024-02-28T14:02:40;12.83;;;11.53;;
2061;SDS011;11070;51.336;12.340;2024-02-28T14:05:06;13.00;;;11.10;;
2061;SDS011;11070;51.336;12.340;2024-02-28T14:07:34;11.70;;;10.57;;
2061;SDS011;11070;51.336;12.340;2024-02-28T14:10:02;13.73;;;11.23;;
2061;SDS011;11070;51.336;12.340;2024-02-28T14:12:28;13.80;;;10.97;;
2061;SDS011;11070;51.336;12.340;2024-02-28T14:14:54;14.03;;;11.00;;
2061;SDS011;11070;51.336;12.340;2024-02-28T14:17:20;13.40;;;12.10;;